Airfield :
LOGIN :

Register | Disclaimer

   EN    FR    IT 

 










Legend :    VFR   Marginal VFR   IFR   Intensive IFR   Very Intensive IFR
Visi :
Ceiling :
>= 8 km
>= 3000ft
5 to 8 km
1000 to 3000 ft
1500m to 5 km
500 to 1000 ft
800 to 1500m
200 to 500 ft
< 800m
< 200 ft
Symbols :   Thunderstorms  Fog  Heavy snow  Heavy precipitations  Wind > 20 kt
SIGMETs :     Misc.  Thunderstorms  Icing  Turbulence  Mountain Waves  Volcanic Ashes






- Airport Elevation : 24 ft
- IATA code : FAO


LPFR - Faro

CURRENT METAR :
  • 180430Z 29006KT 9999 FEW022 17/14 Q1013

EXPIRED METARs :
  • 180400Z VRB02KT 9999 FEW022 17/14 Q1012
  • 180330Z 26007KT 9999 -RA FEW022 17/13 Q1013
  • 180300Z 25005KT 9999 FEW022 FEW025CB 18/13 Q1012
  • 180230Z 35006KT 320V020 9999 FEW022 18/12 Q1012
  • 180200Z 32009KT 9999 FEW022 18/11 Q1012

TAF TAF LPFR
Valid from the 18 at 00:00 until the 19 at 00:00 UTC


172300Z 1800/1824 30007KT 9999 FEW020 BKN035
TEMPO 1800/1806 5000 RA SCT008 BKN015 FEW025CB
BECMG 1808/1811 24013KT SCT030
BECMG 1817/1820 30010KT SCT020



MET'MAP, your aeronautical weather chart ! - Copyright ORBIFLY December 2007 - Disclaimer

ORBIFLY MET'MAP TEAM :

Programming & Development : Alexandra Zaïnal
Concept & original design : Baudouin d'Aumeries
Assistance for programming : Marc-Olivier Méhu
Technical & hardware support : Manuel Goepfert

Contact : metmap@orbifly.com




SOURCES & CREDITS :

   NOAA